Time;durP1;ratioP1;P1;durP2;ratioP2;P2;SDS_P1;SDS_P2;PMS_P1;PMS_P2;Temp;Humidity;BMP_temperature;BMP_pressure;BME280_temperature;BME280_humidity;BME280_pressure;Samples;Min_cycle;Max_cycle;Signal;HPM_P1;HPM_P2
2024/01/08 00:00:16;;;;;;;25.90;13.95;;;9.70;75.50;;;;;;5077686;28;20024;-69
2024/01/08 00:02:42;;;;;;;21.27;13.30;;;9.70;75.50;;;;;;5077714;28;20032;-69
2024/01/08 00:05:08;;;;;;;20.10;13.65;;;9.70;75.50;;;;;;5077425;28;20495;-69
2024/01/08 00:07:35;;;;;;;20.92;13.38;;;9.70;75.60;;;;;;5077347;28;20028;-69
2024/01/08 00:10:01;;;;;;;22.83;14.43;;;9.60;75.60;;;;;;5077660;28;20074;-69
2024/01/08 00:12:27;;;;;;;22.13;14.40;;;9.60;75.70;;;;;;5077518;28;20032;-69
2024/01/08 00:14:53;;;;;;;22.65;13.95;;;9.60;75.70;;;;;;5077212;28;20028;-68
2024/01/08 00:17:18;;;;;;;22.13;13.00;;;9.60;75.80;;;;;;5077530;28;20095;-69
2024/01/08 00:19:44;;;;;;;21.90;13.23;;;9.60;75.90;;;;;;5077025;28;20024;-69
2024/01/08 00:22:10;;;;;;;20.90;13.45;;;9.60;75.90;;;;;;5077006;28;20029;-69
2024/01/08 00:24:36;;;;;;;21.77;13.52;;;9.60;75.90;;;;;;5077076;28;20032;-69
2024/01/08 00:27:02;;;;;;;21.90;13.40;;;9.60;76.00;;;;;;5077332;28;20464;-69
2024/01/08 00:29:28;;;;;;;21.85;14.00;;;9.60;75.90;;;;;;5075966;28;20066;-69
2024/01/08 00:31:54;;;;;;;23.75;14.00;;;9.60;76.00;;;;;;5076703;28;20369;-69
2024/01/08 00:34:20;;;;;;;22.48;13.73;;;9.60;76.00;;;;;;5077175;28;20078;-69
2024/01/08 00:36:47;;;;;;;21.83;13.20;;;9.60;76.00;;;;;;5077079;28;20040;-69
2024/01/08 00:39:13;;;;;;;19.55;13.27;;;9.60;76.00;;;;;;5076795;28;20090;-69
2024/01/08 00:41:39;;;;;;;24.38;14.68;;;9.60;76.00;;;;;;5076888;28;20441;-69
2024/01/08 00:44:05;;;;;;;24.15;13.82;;;9.60;75.90;;;;;;5076232;28;20099;-69
2024/01/08 00:46:31;;;;;;;22.60;14.20;;;9.60;75.80;;;;;;5077115;28;20077;-68
2024/01/08 00:48:57;;;;;;;19.58;12.68;;;9.50;75.70;;;;;;5076516;28;20470;-68
2024/01/08 00:51:23;;;;;;;20.80;13.75;;;9.50;75.80;;;;;;5076379;28;20067;-67
2024/01/08 00:53:48;;;;;;;21.27;13.80;;;9.50;75.90;;;;;;5076969;28;20103;-67
2024/01/08 00:56:15;;;;;;;24.75;15.18;;;9.50;75.90;;;;;;5075804;28;20024;-68
2024/01/08 00:58:43;;;;;;;21.88;13.82;;;9.50;75.90;;;;;;5076586;28;20449;-68
2024/01/08 01:01:11;;;;;;;23.13;13.80;;;9.50;75.80;;;;;;5076123;28;20032;-67
2024/01/08 01:03:37;;;;;;;21.98;13.13;;;9.50;75.90;;;;;;5076461;28;20482;-68
2024/01/08 01:06:03;;;;;;;18.67;11.85;;;9.50;75.70;;;;;;5076152;28;20036;-68
2024/01/08 01:08:29;;;;;;;22.20;13.60;;;9.50;75.70;;;;;;5076104;28;20457;-68
2024/01/08 01:10:55;;;;;;;24.08;14.45;;;9.50;75.60;;;;;;5076100;28;20024;-68
2024/01/08 01:13:21;;;;;;;20.83;12.80;;;9.50;75.50;;;;;;5076042;28;20108;-68
2024/01/08 01:15:47;;;;;;;21.90;13.95;;;9.50;75.50;;;;;;5076537;28;20055;-68
2024/01/08 01:18:13;;;;;;;22.48;13.35;;;9.50;75.50;;;;;;5076199;28;20036;-68
2024/01/08 01:20:38;;;;;;;23.83;13.48;;;9.50;75.70;;;;;;5075823;28;20029;-69
2024/01/08 01:23:04;;;;;;;25.52;13.43;;;9.40;75.70;;;;;;5075824;28;20016;-68
2024/01/08 01:25:30;;;;;;;23.30;13.23;;;9.40;75.80;;;;;;5076088;28;20100;-68
2024/01/08 01:27:56;;;;;;;22.63;14.00;;;9.40;75.80;;;;;;5075779;28;20492;-68
2024/01/08 01:30:22;;;;;;;25.50;14.35;;;9.40;75.90;;;;;;5075460;28;20048;-68
2024/01/08 01:32:48;;;;;;;25.00;14.68;;;9.40;75.90;;;;;;5075983;28;20123;-68
2024/01/08 01:35:14;;;;;;;23.58;14.93;;;9.30;75.90;;;;;;5076179;28;20028;-68
2024/01/08 01:37:42;;;;;;;24.25;14.35;;;9.30;76.00;;;;;;5075669;28;20035;-68
2024/01/08 01:40:10;;;;;;;23.20;13.75;;;9.20;76.20;;;;;;5075819;28;20024;-68
2024/01/08 01:42:36;;;;;;;25.02;15.05;;;9.20;76.10;;;;;;5075513;28;20017;-68
2024/01/08 01:45:03;;;;;;;26.23;16.20;;;9.20;76.30;;;;;;5075521;28;20032;-68
2024/01/08 01:47:30;;;;;;;30.60;16.02;;;9.20;76.30;;;;;;5075513;28;20073;-69
2024/01/08 01:49:56;;;;;;;26.88;15.80;;;9.20;76.30;;;;;;5075699;28;20051;-68
2024/01/08 01:52:24;;;;;;;27.75;16.63;;;9.20;76.30;;;;;;5075617;28;20012;-69
2024/01/08 01:54:51;;;;;;;25.55;17.42;;;9.20;76.40;;;;;;5075150;28;20349;-68
2024/01/08 01:57:17;;;;;;;28.92;17.83;;;9.20;76.40;;;;;;5075665;28;20091;-69
2024/01/08 01:59:44;;;;;;;28.95;17.88;;;9.20;76.40;;;;;;5075507;28;20043;-69
2024/01/08 02:02:11;;;;;;;26.35;16.52;;;9.20;76.40;;;;;;5075337;28;20027;-69
2024/01/08 02:04:38;;;;;;;26.17;15.98;;;9.20;76.40;;;;;;5075570;28;20029;-69
2024/01/08 02:07:05;;;;;;;28.60;15.95;;;9.20;76.30;;;;;;5075267;28;20082;-69
2024/01/08 02:09:31;;;;;;;27.60;16.13;;;9.20;76.40;;;;;;5075521;28;20033;-69
2024/01/08 02:11:58;;;;;;;25.90;15.70;;;9.20;76.30;;;;;;5075248;28;20051;-68
2024/01/08 02:14:23;;;;;;;28.33;18.23;;;9.30;76.30;;;;;;5075205;28;20372;-69
2024/01/08 02:16:50;;;;;;;24.48;15.65;;;9.20;76.10;;;;;;5075482;28;20108;-69
2024/01/08 02:19:16;;;;;;;26.10;16.73;;;9.30;76.10;;;;;;5075184;28;20056;-69
2024/01/08 02:21:42;;;;;;;31.48;16.80;;;9.30;76.10;;;;;;5075012;28;20506;-68
2024/01/08 02:24:08;;;;;;;31.92;18.02;;;9.30;76.10;;;;;;5075419;28;20028;-69
2024/01/08 02:26:36;;;;;;;26.60;15.13;;;9.30;76.10;;;;;;5075058;28;20025;-69
2024/01/08 02:29:02;;;;;;;24.65;15.10;;;9.30;76.10;;;;;;5074983;28;20028;-69
2024/01/08 02:31:28;;;;;;;28.80;16.85;;;9.30;76.10;;;;;;5074755;28;20432;-69
2024/01/08 02:33:54;;;;;;;23.55;14.50;;;9.30;75.90;;;;;;5075348;28;20021;-68
2024/01/08 02:36:20;;;;;;;28.27;16.85;;;9.30;76.00;;;;;;5075053;28;20104;-69
2024/01/08 02:38:47;;;;;;;24.10;14.65;;;9.30;75.90;;;;;;5075521;28;20116;-69
2024/01/08 02:41:12;;;;;;;22.63;14.05;;;9.30;76.00;;;;;;5075139;28;20063;-69
2024/01/08 02:43:38;;;;;;;25.55;15.00;;;9.30;76.00;;;;;;5075199;28;20458;-68
2024/01/08 02:46:04;;;;;;;22.70;14.52;;;9.30;76.00;;;;;;5075200;28;20024;-69
2024/01/08 02:48:30;;;;;;;21.73;13.00;;;9.30;76.00;;;;;;5074899;28;20052;-69
2024/01/08 02:50:56;;;;;;;22.90;13.98;;;9.40;76.00;;;;;;5075072;28;20052;-69
2024/01/08 02:53:22;;;;;;;22.70;14.10;;;9.40;76.00;;;;;;5073874;28;20064;-69
2024/01/08 02:55:49;;;;;;;21.52;13.10;;;9.40;75.90;;;;;;5075093;28;20406;-69
2024/01/08 02:58:15;;;;;;;22.67;14.20;;;9.40;75.90;;;;;;5074734;28;20438;-69
2024/01/08 03:00:41;;;;;;;23.60;14.02;;;9.40;75.90;;;;;;5074877;28;20020;-69
2024/01/08 03:03:07;;;;;;;22.60;13.65;;;9.40;75.90;;;;;;5075320;28;20438;-69
2024/01/08 03:05:33;;;;;;;23.80;14.18;;;9.40;75.60;;;;;;5075277;28;20388;-69
2024/01/08 03:07:59;;;;;;;20.52;13.25;;;9.40;75.40;;;;;;5077362;28;20024;-69
2024/01/08 03:10:25;;;;;;;23.10;12.93;;;9.40;75.30;;;;;;5078325;28;20357;-69
2024/01/08 03:12:54;;;;;;;18.08;10.98;;;9.40;74.90;;;;;;5078440;28;20028;-69
2024/01/08 03:15:22;;;;;;;16.75;11.07;;;9.40;74.60;;;;;;5078257;28;20353;-69
2024/01/08 03:17:48;;;;;;;18.15;10.50;;;9.50;75.00;;;;;;5078232;28;20109;-69
2024/01/08 03:20:14;;;;;;;19.23;11.52;;;9.50;75.20;;;;;;5078329;28;20049;-69
2024/01/08 03:22:40;;;;;;;16.77;10.50;;;9.50;75.30;;;;;;5078215;28;20448;-69
2024/01/08 03:25:06;;;;;;;18.15;10.82;;;9.50;75.30;;;;;;5078170;28;20078;-69
2024/01/08 03:27:32;;;;;;;15.93;10.27;;;9.50;75.40;;;;;;5078102;28;20043;-69
2024/01/08 03:29:58;;;;;;;16.88;10.00;;;9.50;75.40;;;;;;5078130;28;20025;-69
2024/01/08 03:32:24;;;;;;;16.63;10.68;;;9.50;75.30;;;;;;5078011;28;20032;-69
2024/01/08 03:34:50;;;;;;;15.07;10.57;;;9.50;75.40;;;;;;5077993;28;20020;-69
2024/01/08 03:37:16;;;;;;;15.65;9.43;;;9.60;75.40;;;;;;5078200;28;20105;-69
2024/01/08 03:39:42;;;;;;;17.48;10.48;;;9.50;75.40;;;;;;5078382;28;20073;-69
2024/01/08 03:42:08;;;;;;;17.98;10.27;;;9.60;75.40;;;;;;5077836;28;20431;-69
2024/01/08 03:44:34;;;;;;;16.50;10.15;;;9.50;75.40;;;;;;5077764;28;20056;-69
2024/01/08 03:47:00;;;;;;;17.23;10.43;;;9.50;75.40;;;;;;5078071;28;20106;-69
2024/01/08 03:49:26;;;;;;;18.02;10.80;;;9.50;75.50;;;;;;5078308;28;20292;-69
2024/01/08 03:51:52;;;;;;;20.85;11.20;;;9.50;75.60;;;;;;5078188;28;20449;-69
2024/01/08 03:54:18;;;;;;;17.98;11.48;;;9.50;75.60;;;;;;5076678;28;20028;-69
2024/01/08 03:56:44;;;;;;;19.38;11.10;;;9.50;75.50;;;;;;5077661;28;20151;-69
2024/01/08 03:59:13;;;;;;;20.42;11.52;;;9.50;75.50;;;;;;5077555;28;20055;-69
2024/01/08 04:01:46;;;;;;;20.42;11.55;;;9.60;75.50;;;;;;5077363;28;20107;-69
2024/01/08 04:04:12;;;;;;;19.83;12.15;;;9.60;75.50;;;;;;5077833;28;20028;-69
2024/01/08 04:06:38;;;;;;;16.92;11.20;;;9.60;75.30;;;;;;5077714;28;20025;-69
2024/01/08 04:09:04;;;;;;;21.33;12.02;;;9.60;75.30;;;;;;5077444;28;20020;-69
2024/01/08 04:11:30;;;;;;;18.83;11.63;;;9.60;75.40;;;;;;5077334;28;20409;-69
2024/01/08 04:13:56;;;;;;;17.90;11.60;;;9.50;75.50;;;;;;5077588;28;20025;-69
2024/01/08 04:16:22;;;;;;;16.63;10.88;;;9.50;75.50;;;;;;5077222;28;20028;-69
2024/01/08 04:18:48;;;;;;;18.77;11.32;;;9.50;75.50;;;;;;5077377;28;20024;-69
2024/01/08 04:21:17;;;;;;;19.58;12.10;;;9.50;75.60;;;;;;5077068;28;20028;-69
2024/01/08 04:23:43;;;;;;;18.38;11.45;;;9.50;75.60;;;;;;5077155;28;20432;-69
2024/01/08 04:26:20;;;;;;;21.05;13.13;;;9.50;75.60;;;;;;5077376;28;20024;-69
2024/01/08 04:28:47;;;;;;;17.63;11.38;;;9.50;75.60;;;;;;5077796;28;20100;-69
2024/01/08 04:31:20;;;;;;;16.40;10.55;;;9.50;75.60;;;;;;5076734;28;20091;-68
2024/01/08 04:33:46;;;;;;;17.52;10.30;;;9.50;75.70;;;;;;5076952;28;20021;-69
2024/01/08 04:36:14;;;;;;;17.88;10.55;;;9.40;75.70;;;;;;5077159;28;20074;-68
2024/01/08 04:38:40;;;;;;;16.83;9.95;;;9.40;75.80;;;;;;5077083;28;20040;-69
2024/01/08 04:41:07;;;;;;;17.48;10.27;;;9.40;75.80;;;;;;5076790;28;20029;-69
2024/01/08 04:43:33;;;;;;;15.98;10.60;;;9.40;76.00;;;;;;5076997;28;20020;-69
2024/01/08 04:45:59;;;;;;;16.15;9.82;;;9.40;76.00;;;;;;5077207;28;20035;-69
2024/01/08 04:48:25;;;;;;;18.08;10.57;;;9.40;76.10;;;;;;5076905;28;20017;-69
2024/01/08 04:50:51;;;;;;;16.38;9.63;;;9.40;76.20;;;;;;5077025;28;20434;-69
2024/01/08 04:53:17;;;;;;;16.20;9.95;;;9.30;76.20;;;;;;5077049;28;20434;-69
2024/01/08 04:55:43;;;;;;;14.73;9.50;;;9.30;76.30;;;;;;5076992;28;20043;-69
2024/01/08 04:58:09;;;;;;;13.40;8.75;;;9.30;76.30;;;;;;5076408;28;20027;-69
2024/01/08 05:00:35;;;;;;;14.50;9.05;;;9.30;76.30;;;;;;5076235;28;20032;-68
2024/01/08 05:03:01;;;;;;;13.75;8.68;;;9.30;76.30;;;;;;5076370;28;20051;-69
2024/01/08 05:05:27;;;;;;;16.17;9.23;;;9.30;76.40;;;;;;5076781;28;20060;-68
2024/01/08 05:07:52;;;;;;;16.10;9.88;;;9.30;76.40;;;;;;5076804;28;20016;-69
2024/01/08 05:10:18;;;;;;;17.17;8.75;;;9.30;76.40;;;;;;5076105;28;20051;-69
2024/01/08 05:12:44;;;;;;;16.52;9.60;;;9.20;76.40;;;;;;5076085;28;20071;-69
2024/01/08 05:15:10;;;;;;;15.63;8.68;;;9.20;76.50;;;;;;5076634;28;20056;-69
2024/01/08 05:17:37;;;;;;;14.98;9.35;;;9.20;76.40;;;;;;5076039;28;20059;-68
2024/01/08 05:20:03;;;;;;;14.50;8.20;;;9.20;76.40;;;;;;5075851;28;20069;-69
2024/01/08 05:22:29;;;;;;;14.73;9.23;;;9.20;76.40;;;;;;5075917;28;20021;-69
2024/01/08 05:24:55;;;;;;;14.13;9.18;;;9.20;76.40;;;;;;5075914;28;20355;-69
2024/01/08 05:27:21;;;;;;;16.80;10.05;;;9.20;76.40;;;;;;5076146;28;20016;-69
2024/01/08 05:29:47;;;;;;;14.90;8.93;;;9.20;76.40;;;;;;5075317;28;20032;-69
2024/01/08 05:32:13;;;;;;;13.35;8.43;;;9.10;76.40;;;;;;5075601;28;20135;-69
2024/01/08 05:34:39;;;;;;;14.43;8.73;;;9.10;76.50;;;;;;5075734;28;20107;-69
2024/01/08 05:37:06;;;;;;;13.02;8.48;;;9.10;76.60;;;;;;5075623;28;20020;-68
2024/01/08 05:39:32;;;;;;;13.68;8.48;;;9.10;76.60;;;;;;5074650;28;20394;-69
2024/01/08 05:41:58;;;;;;;12.32;8.50;;;9.10;76.60;;;;;;5075480;28;20051;-69
2024/01/08 05:44:25;;;;;;;13.93;8.40;;;9.00;76.70;;;;;;5075596;28;20052;-69
2024/01/08 05:46:51;;;;;;;11.85;7.63;;;9.00;76.70;;;;;;5075568;28;20028;-69
2024/01/08 05:49:16;;;;;;;15.63;8.55;;;9.00;76.70;;;;;;5075580;28;20029;-69
2024/01/08 05:51:42;;;;;;;15.27;8.80;;;9.00;76.70;;;;;;5075471;28;20017;-69
2024/01/08 05:54:08;;;;;;;12.60;8.32;;;8.90;76.80;;;;;;5076024;28;20035;-69
2024/01/08 05:56:37;;;;;;;13.77;9.30;;;9.00;76.80;;;;;;5075760;28;20028;-69
2024/01/08 05:59:03;;;;;;;13.88;7.90;;;8.90;76.80;;;;;;5075374;28;20437;-69
2024/01/08 06:01:29;;;;;;;15.45;9.65;;;8.90;76.80;;;;;;5075523;28;20098;-69
2024/01/08 06:03:55;;;;;;;15.98;9.02;;;8.90;76.90;;;;;;5075392;28;20429;-69
2024/01/08 06:06:21;;;;;;;13.40;8.75;;;8.90;76.90;;;;;;5075367;28;20462;-69
2024/01/08 06:08:47;;;;;;;13.57;8.85;;;8.90;76.90;;;;;;5075544;28;20021;-68
2024/01/08 06:11:13;;;;;;;11.18;7.65;;;8.90;76.90;;;;;;5075243;28;20451;-69
2024/01/08 06:13:40;;;;;;;13.80;8.35;;;8.90;77.00;;;;;;5075304;28;20029;-69
2024/01/08 06:16:06;;;;;;;13.50;8.90;;;8.90;77.00;;;;;;5075265;28;20442;-68
2024/01/08 06:18:32;;;;;;;14.15;8.45;;;8.90;77.00;;;;;;5075496;28;20029;-68
2024/01/08 06:20:58;;;;;;;14.90;8.77;;;8.90;76.90;;;;;;5075051;28;20020;-69
2024/01/08 06:23:25;;;;;;;16.38;10.43;;;8.90;77.00;;;;;;5075143;28;20067;-69
2024/01/08 06:25:51;;;;;;;12.63;8.05;;;8.90;77.00;;;;;;5075116;28;20024;-69
2024/01/08 06:28:17;;;;;;;13.07;8.25;;;8.90;77.00;;;;;;5075128;28;20019;-69
2024/01/08 06:30:43;;;;;;;14.70;9.90;;;8.90;77.00;;;;;;5075148;28;20040;-69
2024/01/08 06:33:10;;;;;;;12.38;8.82;;;8.90;77.00;;;;;;5075067;28;20017;-69
2024/01/08 06:35:36;;;;;;;15.63;9.23;;;8.90;77.00;;;;;;5075277;28;20033;-69
2024/01/08 06:38:02;;;;;;;14.55;9.65;;;8.90;77.00;;;;;;5075319;28;20078;-69
2024/01/08 06:40:28;;;;;;;14.10;8.75;;;8.90;76.90;;;;;;5074736;28;20107;-69
2024/01/08 06:42:53;;;;;;;13.60;8.75;;;8.80;77.00;;;;;;5077879;28;20070;-69
2024/01/08 06:45:19;;;;;;;16.02;8.85;;;8.80;77.00;;;;;;5079428;28;20031;-69
2024/01/08 06:47:45;;;;;;;14.23;9.10;;;8.80;77.00;;;;;;5079410;28;20312;-69
2024/01/08 06:50:11;;;;;;;14.20;8.88;;;8.80;77.10;;;;;;5078815;28;20108;-69
2024/01/08 06:52:37;;;;;;;24.02;12.90;;;8.80;77.10;;;;;;5079392;28;20338;-70
2024/01/08 06:55:04;;;;;;;20.23;12.55;;;8.80;77.20;;;;;;5297532;23;20061;-70
2024/01/08 06:57:30;;;;;;;16.35;10.45;;;8.80;77.10;;;;;;5018926;28;20351;-70
2024/01/08 06:59:56;;;;;;;14.25;9.13;;;8.80;77.20;;;;;;5018861;28;20028;-71
2024/01/08 07:02:22;;;;;;;14.82;9.68;;;8.80;77.20;;;;;;5018853;28;20093;-70
2024/01/08 07:04:48;;;;;;;15.38;9.70;;;8.80;77.10;;;;;;5008787;28;20105;-70
2024/01/08 07:07:14;;;;;;;14.10;8.85;;;8.70;77.20;;;;;;4999242;28;20050;-70
2024/01/08 07:12:15;;;;;;;15.98;9.38;;;8.70;77.20;;;;;;5021388;23;20058;-69
2024/01/08 07:14:47;;;;;;;13.90;8.43;;;8.70;77.20;;;;;;4978392;28;20018;-70
2024/01/08 07:17:12;;;;;;;14.52;9.30;;;8.70;77.20;;;;;;4979452;28;20463;-69
2024/01/08 07:19:38;;;;;;;11.10;7.90;;;8.60;77.20;;;;;;4979270;28;20027;-71
2024/01/08 07:22:04;;;;;;;14.77;8.75;;;8.60;77.30;;;;;;4978154;28;20044;-69
2024/01/08 07:24:30;;;;;;;12.77;9.05;;;8.60;77.40;;;;;;4959969;29;20102;-68
2024/01/08 07:26:57;;;;;;;14.95;8.02;;;8.60;77.40;;;;;;4960271;29;20027;-70
2024/01/08 07:29:25;;;;;;;12.82;7.90;;;8.70;77.40;;;;;;4960019;29;20047;-70
2024/01/08 07:31:51;;;;;;;13.88;8.68;;;8.60;77.30;;;;;;4959786;28;20114;-71
2024/01/08 07:34:19;;;;;;;17.33;8.32;;;8.60;77.40;;;;;;5264261;23;21219;-70
2024/01/08 07:36:45;;;;;;;13.18;8.38;;;8.60;77.40;;;;;;4967435;28;20031;-70
2024/01/08 07:39:14;;;;;;;11.45;7.38;;;8.60;77.40;;;;;;4957746;29;20027;-70
2024/01/08 07:41:45;;;;;;;13.23;8.65;;;8.60;77.40;;;;;;4958658;29;20122;-70
2024/01/08 07:44:11;;;;;;;11.70;7.93;;;8.60;77.60;;;;;;4959589;28;20031;-69
2024/01/08 07:46:37;;;;;;;12.50;8.43;;;8.70;77.60;;;;;;4959652;29;20028;-70
2024/01/08 07:49:03;;;;;;;14.90;9.35;;;8.60;77.60;;;;;;4960090;28;20058;-68
2024/01/08 07:51:29;;;;;;;14.23;8.68;;;8.70;77.60;;;;;;4959698;28;20090;-69
2024/01/08 07:53:55;;;;;;;14.07;9.10;;;8.70;77.50;;;;;;5263505;23;20142;-70
2024/01/08 07:56:27;;;;;;;15.43;8.57;;;8.80;77.60;;;;;;4958328;28;20035;-69
2024/01/08 08:01:18;;;;;;;17.17;10.07;;;8.80;77.60;;;;;;5264814;23;20051;-79
2024/01/08 08:03:44;;;;;;;15.90;10.10;;;8.90;77.70;;;;;;4948817;28;20075;-72
2024/01/08 08:06:10;;;;;;;18.20;10.38;;;8.90;77.70;;;;;;4942208;29;20031;-72
2024/01/08 08:08:36;;;;;;;19.45;11.68;;;8.90;77.70;;;;;;4959370;28;20031;-71
2024/01/08 08:11:03;;;;;;;20.50;12.68;;;9.00;77.70;;;;;;5233636;23;20082;-71
2024/01/08 08:13:30;;;;;;;21.55;12.38;;;9.10;77.70;;;;;;4957622;29;20095;-68
2024/01/08 08:15:56;;;;;;;22.15;13.85;;;9.10;77.70;;;;;;4958104;29;20027;-75
2024/01/08 08:18:22;;;;;;;22.77;14.50;;;9.20;77.70;;;;;;4939813;29;20024;-71
2024/01/08 08:20:48;;;;;;;25.75;14.18;;;9.20;77.60;;;;;;4940044;28;20039;-71
2024/01/08 08:23:14;;;;;;;20.35;13.27;;;9.40;77.60;;;;;;4940307;29;20051;-73
2024/01/08 08:25:41;;;;;;;36.38;21.20;;;9.40;77.50;;;;;;4940272;29;20479;-73
2024/01/08 08:28:07;;;;;;;31.27;18.48;;;9.50;77.60;;;;;;4939889;29;20031;-72
2024/01/08 08:30:32;;;;;;;26.50;16.83;;;9.50;76.90;;;;;;4940038;29;20358;-74
2024/01/08 08:35:24;;;;;;;28.50;19.33;;;9.70;76.80;;;;;;5637079;23;20511;-70
2024/01/08 08:37:50;;;;;;;26.35;17.45;;;9.70;76.90;;;;;;4977463;28;20019;-77
2024/01/08 08:40:16;;;;;;;24.38;15.45;;;9.90;76.80;;;;;;4978387;28;20018;-72
2024/01/08 08:42:42;;;;;;;20.60;13.13;;;9.90;73.60;;;;;;4976094;28;20344;-73
2024/01/08 08:45:09;;;;;;;15.40;10.43;;;10.00;74.00;;;;;;4977854;28;20026;-73
2024/01/08 08:47:35;;;;;;;16.65;9.98;;;10.10;73.10;;;;;;4978071;28;20022;-74
2024/01/08 08:50:01;;;;;;;17.52;10.50;;;10.20;73.50;;;;;;4978142;28;20049;-71
2024/01/08 08:52:27;;;;;;;15.60;8.50;;;10.30;73.70;;;;;;4978061;28;20023;-75
2024/01/08 08:54:52;;;;;;;14.07;7.93;;;10.40;70.50;;;;;;4978083;28;20041;-74
2024/01/08 08:57:19;;;;;;;14.25;6.80;;;10.40;69.40;;;;;;4977658;28;20026;-72
2024/01/08 08:59:45;;;;;;;10.48;6.30;;;10.40;67.30;;;;;;4977648;28;20035;-71
2024/01/08 09:02:11;;;;;;;11.73;6.28;;;10.40;65.60;;;;;;4977822;28;20029;-74
2024/01/08 09:04:37;;;;;;;10.73;6.00;;;10.50;66.70;;;;;;4976304;28;20050;-73
2024/01/08 09:07:03;;;;;;;12.30;5.68;;;10.50;64.20;;;;;;4978030;28;20061;-72
2024/01/08 09:09:29;;;;;;;8.73;5.15;;;10.40;64.30;;;;;;4977660;28;20050;-73
2024/01/08 09:11:55;;;;;;;11.02;5.40;;;10.50;65.20;;;;;;4977400;28;20023;-73
2024/01/08 09:14:21;;;;;;;8.70;5.07;;;10.60;66.70;;;;;;4977934;28;20031;-73
2024/01/08 09:16:47;;;;;;;10.80;5.68;;;10.70;65.00;;;;;;4977306;28;20054;-74
2024/01/08 09:19:13;;;;;;;11.68;5.00;;;10.90;65.60;;;;;;4977345;28;20030;-74
2024/01/08 09:21:43;;;;;;;10.18;5.55;;;11.00;63.80;;;;;;4976360;28;20126;-73
2024/01/08 09:24:09;;;;;;;7.68;4.72;;;11.00;62.40;;;;;;4977252;28;20030;-73
2024/01/08 09:26:35;;;;;;;8.68;5.40;;;10.90;61.20;;;;;;4977144;28;20076;-73
2024/01/08 09:29:01;;;;;;;11.57;5.70;;;10.90;62.80;;;;;;4977151;28;20412;-73
2024/01/08 09:31:27;;;;;;;8.35;4.72;;;10.90;62.60;;;;;;4977502;28;20023;-73
2024/01/08 09:33:54;;;;;;;11.65;5.30;;;10.90;64.20;;;;;;4977008;28;20035;-73
2024/01/08 09:36:20;;;;;;;9.90;5.10;;;11.00;62.20;;;;;;4976755;28;20086;-72
2024/01/08 09:38:46;;;;;;;10.15;5.28;;;10.90;63.60;;;;;;4977193;28;20054;-73
2024/01/08 09:41:12;;;;;;;10.10;5.30;;;11.00;61.30;;;;;;4977090;28;20045;-74
2024/01/08 09:43:39;;;;;;;8.50;4.80;;;10.90;61.00;;;;;;4976844;28;20027;-73
2024/01/08 09:46:07;;;;;;;6.95;4.60;;;10.90;62.20;;;;;;4974140;28;20082;-73
2024/01/08 09:48:34;;;;;;;11.90;4.80;;;10.90;63.00;;;;;;4975097;28;20448;-73
2024/01/08 09:51:01;;;;;;;9.40;4.82;;;10.90;61.10;;;;;;4976738;28;20431;-73
2024/01/08 09:53:29;;;;;;;9.25;5.15;;;11.00;61.70;;;;;;4977000;28;20035;-72
2024/01/08 09:55:55;;;;;;;8.10;4.18;;;10.90;59.60;;;;;;4976895;28;20062;-73
2024/01/08 09:58:22;;;;;;;8.10;4.88;;;11.00;61.80;;;;;;4977227;28;20030;-72
2024/01/08 10:00:48;;;;;;;9.40;5.40;;;11.10;61.10;;;;;;4977400;28;20035;-72
2024/01/08 10:03:14;;;;;;;9.38;4.93;;;11.00;60.10;;;;;;4978233;28;20078;-72
2024/01/08 10:05:39;;;;;;;8.73;5.22;;;11.00;60.60;;;;;;4977677;28;20019;-73
2024/01/08 10:08:06;;;;;;;8.95;4.60;;;11.00;61.00;;;;;;4978185;28;20027;-72
2024/01/08 10:10:32;;;;;;;9.32;5.07;;;11.00;60.90;;;;;;4978655;28;20026;-72
2024/01/08 10:12:59;;;;;;;7.10;4.78;;;11.10;61.10;;;;;;4977022;28;20042;-73
2024/01/08 10:15:26;;;;;;;10.95;4.68;;;11.00;60.10;;;;;;4976441;28;20029;-73
2024/01/08 10:17:55;;;;;;;9.40;4.97;;;11.00;58.40;;;;;;4976990;28;20531;-72
2024/01/08 10:20:21;;;;;;;9.82;5.20;;;11.00;60.50;;;;;;4976630;28;20178;-73
2024/01/08 10:25:22;;;;;;;10.90;5.38;;;11.20;61.70;;;;;;5645921;23;20046;-67
2024/01/08 10:27:49;;;;;;;9.70;5.38;;;11.10;59.20;;;;;;4976913;28;20037;-70
2024/01/08 10:30:15;;;;;;;9.93;5.25;;;11.10;59.70;;;;;;4976587;28;20041;-69
2024/01/08 10:32:41;;;;;;;9.88;5.07;;;11.00;60.80;;;;;;4976324;28;20034;-69
2024/01/08 10:35:08;;;;;;;10.88;5.20;;;11.10;60.70;;;;;;4976425;28;20025;-69
2024/01/08 10:37:35;;;;;;;11.07;5.25;;;11.20;60.70;;;;;;4976536;28;20055;-69
2024/01/08 10:40:04;;;;;;;9.82;4.97;;;11.30;61.20;;;;;;4975348;28;20023;-69
2024/01/08 10:42:30;;;;;;;10.82;5.20;;;11.40;60.70;;;;;;4976455;28;20026;-69
2024/01/08 10:44:56;;;;;;;9.43;5.53;;;11.50;61.40;;;;;;4976189;28;20050;-70
2024/01/08 10:47:27;;;;;;;8.27;4.68;;;11.60;59.70;;;;;;4975362;28;20444;-69
2024/01/08 10:49:58;;;;;;;8.95;5.25;;;11.60;60.80;;;;;;4976192;28;20027;-70
2024/01/08 10:52:25;;;;;;;7.90;4.88;;;11.60;59.60;;;;;;4976492;28;20022;-70
2024/01/08 10:54:55;;;;;;;8.77;5.13;;;11.70;59.50;;;;;;4975969;28;20042;-69
2024/01/08 10:57:26;;;;;;;8.73;5.30;;;11.80;61.50;;;;;;4975229;28;20460;-70
2024/01/08 10:59:53;;;;;;;7.85;4.95;;;11.80;59.90;;;;;;4976102;28;20042;-69
2024/01/08 11:02:20;;;;;;;7.78;4.97;;;11.90;59.40;;;;;;4976213;28;20063;-69
2024/01/08 11:04:46;;;;;;;7.82;4.55;;;11.90;60.00;;;;;;4975985;28;20019;-70
2024/01/08 11:07:15;;;;;;;10.30;5.20;;;11.90;60.10;;;;;;4976282;28;20326;-70
2024/01/08 11:09:42;;;;;;;9.05;5.35;;;12.00;60.10;;;;;;4975154;28;20019;-70
2024/01/08 11:12:11;;;;;;;8.93;5.10;;;12.10;58.40;;;;;;4976217;28;20023;-69
2024/01/08 11:14:40;;;;;;;9.18;5.00;;;12.10;59.20;;;;;;4976146;28;20109;-70
2024/01/08 11:17:09;;;;;;;8.15;4.90;;;12.20;59.30;;;;;;4975847;28;20360;-70
2024/01/08 11:19:40;;;;;;;10.65;5.28;;;12.20;59.70;;;;;;4975812;28;20042;-69
2024/01/08 11:22:15;;;;;;;8.90;4.97;;;12.20;57.60;;;;;;4976120;28;20038;-69
2024/01/08 11:24:41;;;;;;;9.57;5.50;;;12.20;59.00;;;;;;4974843;28;20026;-69
2024/01/08 11:27:07;;;;;;;7.85;4.95;;;12.30;59.30;;;;;;4975720;28;20051;-70
2024/01/08 11:29:34;;;;;;;8.82;5.20;;;12.30;59.30;;;;;;4978875;28;20031;-70
2024/01/08 11:32:37;;;;;;;8.82;5.00;;;12.40;60.30;;;;;;4979586;28;20054;-70
2024/01/08 11:35:10;;;;;;;9.75;5.22;;;12.40;59.70;;;;;;4979598;28;20037;-70
2024/01/08 11:37:38;;;;;;;8.90;5.32;;;12.50;58.90;;;;;;4979189;28;20066;-69
2024/01/08 11:40:10;;;;;;;8.73;5.30;;;12.50;56.40;;;;;;4979155;28;20037;-69
2024/01/08 11:42:37;;;;;;;8.48;4.78;;;12.50;57.00;;;;;;4979404;28;20158;-70
2024/01/08 11:45:03;;;;;;;8.13;5.00;;;12.50;58.20;;;;;;5252515;23;20074;-69
2024/01/08 11:47:33;;;;;;;9.30;4.82;;;12.50;58.60;;;;;;4997431;28;20044;-69
2024/01/08 11:49:59;;;;;;;9.32;5.40;;;12.50;59.10;;;;;;4998630;28;20030;-69
2024/01/08 11:52:29;;;;;;;8.40;4.85;;;12.60;59.50;;;;;;4998323;28;20471;-69
2024/01/08 11:54:55;;;;;;;10.20;5.60;;;12.60;59.80;;;;;;4998316;28;20081;-69
2024/01/08 11:57:22;;;;;;;8.75;5.00;;;12.70;59.50;;;;;;4998525;28;20026;-69
2024/01/08 11:59:49;;;;;;;9.93;5.35;;;12.80;58.80;;;;;;4998513;28;20054;-69
2024/01/08 12:02:16;;;;;;;8.73;5.10;;;12.80;58.80;;;;;;4998066;28;20105;-68
2024/01/08 12:04:52;;;;;;;9.63;5.60;;;12.90;59.40;;;;;;4998353;28;20411;-69
2024/01/08 12:07:19;;;;;;;9.13;5.00;;;12.90;56.80;;;;;;4997579;28;20415;-70
2024/01/08 12:09:47;;;;;;;7.93;5.13;;;12.90;57.50;;;;;;4998100;28;20057;-69
2024/01/08 12:12:15;;;;;;;7.95;4.90;;;12.90;58.50;;;;;;4997935;28;20029;-69
2024/01/08 12:14:41;;;;;;;9.15;5.45;;;12.90;59.00;;;;;;4998145;28;20034;-69
2024/01/08 12:17:10;;;;;;;9.68;5.53;;;12.90;58.40;;;;;;4997917;28;20054;-69
2024/01/08 12:19:56;;;;;;;9.02;5.40;;;12.90;57.80;;;;;;4998410;28;20030;-69
2024/01/08 12:22:23;;;;;;;8.50;4.60;;;12.90;56.90;;;;;;4997726;28;20098;-69
2024/01/08 12:24:55;;;;;;;8.57;5.32;;;12.90;58.00;;;;;;4997843;28;20030;-69
2024/01/08 12:27:22;;;;;;;9.13;5.05;;;12.90;58.20;;;;;;4998000;28;20089;-69
2024/01/08 12:29:50;;;;;;;25.65;9.35;;;12.90;58.50;;;;;;4998205;28;20022;-69
2024/01/08 12:32:21;;;;;;;10.93;5.65;;;12.90;58.80;;;;;;4997882;28;20018;-69
2024/01/08 12:34:47;;;;;;;10.00;5.70;;;12.90;58.50;;;;;;4997556;28;20030;-69
2024/01/08 12:37:19;;;;;;;10.27;5.25;;;12.90;58.30;;;;;;4997751;28;20026;-69
2024/01/08 12:39:46;;;;;;;11.73;5.43;;;13.00;58.10;;;;;;4997712;28;20333;-69
2024/01/08 12:42:14;;;;;;;10.32;5.47;;;13.00;58.10;;;;;;4996424;28;20034;-69
2024/01/08 12:44:41;;;;;;;8.48;5.22;;;13.00;56.60;;;;;;4997306;28;20117;-69
2024/01/08 12:47:07;;;;;;;8.95;5.35;;;12.90;55.90;;;;;;4996374;28;20360;-68